Station Historical Data
Daily Summary for November 25, 2017 Units:  English    Metric   Both
« Previous Day
Next Day »
Daily Weekly Monthly Yearly Custom
  High: Low: Average:
Temperature: 63.2 °F 40.3 °F 49.8 °F
Dew Point: 47.5 °F 36.9 °F 40.5 °F
Humidity: 93% 40% 73%
Wind Speed: 6.9mph 0.0mph 0.8mph
Wind Gust: 6.9mph - -
Wind- - West
Pressure: 30.11 in 29.99 in -
Precipitation: 0.00 in    
Historical Graphs
 
 
Tabular Data for November 25, 2017
Time Temperature Dew Point Pressure Wind Wind Speed Wind Gust Humidity Rainfall Rate (Hourly) solar Conditions
00:00 41.9 °F 38.9 °F 30.02 in Calm     89% 0.00 in WeatherDisplay:10.37 W/m2 FEW
00:05 41.9 °F 38.9 °F 30.02 in Calm     89% 0.00 in WeatherDisplay:10.37 W/m2 CLR
00:10 41.8 °F 38.8 °F 30.02 in Calm     89% 0.00 in WeatherDisplay:10.37 W/m2 CLR
00:15 41.7 °F 38.7 °F 30.02 in Calm     89% 0.00 in WeatherDisplay:10.37 W/m2 CLR
00:20 41.7 °F 38.7 °F 30.02 in Calm     89% 0.00 in WeatherDisplay:10.37 W/m2 CLR
00:25 41.6 °F 38.6 °F 30.02 in Calm     89% 0.00 in WeatherDisplay:10.37 W/m2 CLR
00:30 41.6 °F 38.9 °F 30.02 in Calm     90% 0.00 in WeatherDisplay:10.37 W/m2 CLR
00:35 41.5 °F 38.8 °F 30.02 in Calm     90% 0.00 in WeatherDisplay:10.37 W/m2 CLR
00:40 41.6 °F 38.9 °F 30.02 in Calm     90% 0.00 in WeatherDisplay:10.37 W/m2 CLR
00:46 41.6 °F 38.9 °F 30.02 in Calm     90% 0.00 in WeatherDisplay:10.37 W/m2 CLR
00:51 41.8 °F 39.1 °F 30.02 in Calm     90% 0.00 in WeatherDisplay:10.37 W/m2 CLR
00:56 41.9 °F 39.2 °F 30.02 in Calm     90% 0.00 in WeatherDisplay:10.37 W/m2 CLR
01:01 41.8 °F 39.1 °F 30.01 in Calm     90% 0.00 in WeatherDisplay:10.37 W/m2 CLR
01:06 41.7 °F 39.0 °F 30.01 in Calm     90% 0.00 in WeatherDisplay:10.37 W/m2 CLR
01:11 41.7 °F 39.0 °F 30.01 in Calm     90% 0.00 in WeatherDisplay:10.37 W/m2 CLR
01:16 41.7 °F 39.0 °F 30.01 in Calm     90% 0.00 in WeatherDisplay:10.37 W/m2 CLR
01:21 41.6 °F 38.9 °F 30.01 in Calm     90% 0.00 in WeatherDisplay:10.37 W/m2 CLR
01:26 41.7 °F 39.0 °F 30.01 in Calm     90% 0.00 in WeatherDisplay:10.37 W/m2 CLR
01:31 42.1 °F 39.7 °F 30.02 in Calm     91% 0.00 in WeatherDisplay:10.37 W/m2 CLR
01:36 42.0 °F 39.3 °F 30.02 in Calm     90% 0.00 in WeatherDisplay:10.37 W/m2 CLR
01:41 41.9 °F 39.2 °F 30.01 in Calm     90% 0.00 in WeatherDisplay:10.37 W/m2 CLR
01:47 41.7 °F 39.0 °F 30.02 in Calm     90% 0.00 in WeatherDisplay:10.37 W/m2 CLR
01:52 41.6 °F 38.9 °F 30.02 in Calm     90% 0.00 in WeatherDisplay:10.37 W/m2 CLR
01:57 41.6 °F 38.9 °F 30.02 in Calm     90% 0.00 in WeatherDisplay:10.37 W/m2 CLR
02:02 41.5 °F 38.8 °F 30.02 in Calm     90% 0.00 in WeatherDisplay:10.37 W/m2 CLR
02:07 41.4 °F 38.7 °F 30.02 in Calm     90% 0.00 in WeatherDisplay:10.37 W/m2 CLR
02:12 41.4 °F 38.7 °F 30.02 in Calm     90% 0.00 in WeatherDisplay:10.37 W/m2 CLR
02:17 41.4 °F 38.7 °F 30.02 in Calm     90% 0.00 in WeatherDisplay:10.37 W/m2 CLR
02:22 41.4 °F 39.0 °F 30.01 in Calm     91% 0.00 in WeatherDisplay:10.37 W/m2 CLR
02:27 41.5 °F 39.1 °F 30.01 in Calm     91% 0.00 in WeatherDisplay:10.37 W/m2 CLR
02:32 41.5 °F 39.1 °F 30.01 in Calm     91% 0.00 in WeatherDisplay:10.37 W/m2 CLR
02:37 41.4 °F 39.0 °F 30.02 in Calm     91% 0.00 in WeatherDisplay:10.37 W/m2 CLR
02:42 41.4 °F 39.0 °F 30.01 in Calm     91% 0.00 in WeatherDisplay:10.37 W/m2 CLR
02:48 41.4 °F 39.0 °F 30.01 in Calm     91% 0.00 in WeatherDisplay:10.37 W/m2 CLR
02:53 41.4 °F 39.0 °F 30.01 in Calm     91% 0.00 in WeatherDisplay:10.37 W/m2 CLR
02:58 41.3 °F 38.9 °F 30.01 in Calm     91% 0.00 in WeatherDisplay:10.37 W/m2 CLR
03:03 41.2 °F 38.8 °F 30.01 in Calm     91% 0.00 in WeatherDisplay:10.37 W/m2 CLR
03:08 41.1 °F 38.7 °F 30.01 in Calm     91% 0.00 in WeatherDisplay:10.37 W/m2 CLR
03:13 41.0 °F 38.6 °F 30.01 in Calm     91% 0.00 in WeatherDisplay:10.37 W/m2 CLR
03:18 40.9 °F 38.5 °F 30.01 in Calm     91% 0.00 in WeatherDisplay:10.37 W/m2 CLR
03:23 40.8 °F 38.4 °F 30.01 in Calm     91% 0.00 in WeatherDisplay:10.37 W/m2 CLR
03:28 40.8 °F 38.4 °F 30.01 in Calm     91% 0.00 in WeatherDisplay:10.37 W/m2 CLR
03:33 40.8 °F 38.4 °F 30.01 in Calm     91% 0.00 in WeatherDisplay:10.37 W/m2 CLR
03:38 40.8 °F 38.4 °F 30.01 in Calm     91% 0.00 in WeatherDisplay:10.37 W/m2 CLR
03:43 40.9 °F 38.5 °F 30.01 in Calm     91% 0.00 in WeatherDisplay:10.37 W/m2 CLR
03:48 40.9 °F 38.5 °F 30.01 in Calm     91% 0.00 in WeatherDisplay:10.37 W/m2 CLR
03:54 40.9 °F 38.5 °F 30.00 in Calm     91% 0.00 in WeatherDisplay:10.37 W/m2 CLR
03:59 40.9 °F 38.5 °F 30.00 in Calm     91% 0.00 in WeatherDisplay:10.37 W/m2 CLR
04:04 41.2 °F 39.1 °F 30.01 in Calm     92% 0.00 in WeatherDisplay:10.37 W/m2 FEW
04:09 41.4 °F 39.3 °F 30.01 in Calm     92% 0.00 in WeatherDisplay:10.37 W/m2 FEW
04:14 41.6 °F 39.4 °F 30.01 in Calm     92% 0.00 in WeatherDisplay:10.37 W/m2 FEW
04:19 41.8 °F 39.6 °F 30.01 in Calm     92% 0.00 in WeatherDisplay:10.37 W/m2 FEW
04:24 42.1 °F 39.9 °F 30.01 in Calm     92% 0.00 in WeatherDisplay:10.37 W/m2 FEW
04:30 42.5 °F 40.6 °F 30.01 in Calm     93% 0.00 in WeatherDisplay:10.37 W/m2 FEW
04:35 42.7 °F 40.5 °F 30.01 in Calm     92% 0.00 in WeatherDisplay:10.37 W/m2 FEW
04:40 42.9 °F 40.7 °F 30.01 in Calm     92% 0.00 in WeatherDisplay:10.37 W/m2 FEW
04:45 43.1 °F 40.9 °F 30.01 in Calm     92% 0.00 in WeatherDisplay:10.37 W/m2 FEW
04:50 43.3 °F 41.1 °F 30.01 in Calm     92% 0.00 in WeatherDisplay:10.37 W/m2 FEW
04:55 43.4 °F 41.2 °F 30.01 in Calm     92% 0.00 in WeatherDisplay:10.37 W/m2 FEW
05:00 43.3 °F 41.1 °F 30.01 in Calm     92% 0.00 in WeatherDisplay:10.37 W/m2 FEW
05:05 43.3 °F 40.8 °F 30.01 in Calm     91% 0.00 in WeatherDisplay:10.37 W/m2 FEW
05:10 43.2 °F 40.8 °F 30.01 in Calm     91% 0.00 in WeatherDisplay:10.37 W/m2 FEW
05:15 43.0 °F 40.6 °F 30.02 in Calm     91% 0.00 in WeatherDisplay:10.37 W/m2 FEW
05:20 42.8 °F 40.4 °F 30.02 in Calm     91% 0.00 in WeatherDisplay:10.37 W/m2 FEW
05:25 42.5 °F 39.8 °F 30.02 in Calm     90% 0.00 in WeatherDisplay:10.37 W/m2 FEW
05:30 42.1 °F 39.4 °F 30.02 in Calm     90% 0.00 in WeatherDisplay:10.37 W/m2 FEW
05:35 41.7 °F 39.0 °F 30.02 in Calm     90% 0.00 in WeatherDisplay:10.37 W/m2 FEW
05:41 41.4 °F 38.7 °F 30.02 in Calm     90% 0.00 in WeatherDisplay:10.37 W/m2 FEW
05:46 41.2 °F 38.5 °F 30.02 in Calm     90% 0.00 in WeatherDisplay:10.37 W/m2 FEW
05:51 41.0 °F 38.3 °F 30.02 in Calm     90% 0.00 in WeatherDisplay:10.37 W/m2 FEW
05:56 40.8 °F 38.1 °F 30.02 in Calm     90% 0.00 in WeatherDisplay:10.37 W/m2 FEW
06:01 40.6 °F 37.9 °F 30.02 in Calm     90% 0.00 in WeatherDisplay:10.37 W/m2 CLR
06:06 40.5 °F 38.1 °F 30.02 in Calm     91% 0.00 in WeatherDisplay:10.37 W/m2 CLR
06:16 40.5 °F 38.1 °F 30.02 in Calm     91% 0.00 in WeatherDisplay:10.37 W/m2 CLR
06:21 40.5 °F 38.1 °F 30.02 in Calm     91% 0.00 in WeatherDisplay:10.37 W/m2 CLR
06:26 40.5 °F 38.1 °F 30.03 in Calm     91% 0.00 in WeatherDisplay:10.37 W/m2 CLR
06:31 40.5 °F 38.1 °F 30.03 in Calm     91% 0.00 in WeatherDisplay:10.37 W/m2 CLR
06:36 40.5 °F 38.1 °F 30.03 in Calm     91% 0.00 in WeatherDisplay:10.37 W/m2 CLR
06:42 40.5 °F 38.1 °F 30.03 in Calm     91% 0.00 in WeatherDisplay:10.37 W/m2 CLR
06:47 40.6 °F 38.2 °F 30.03 in Calm     91% 0.00 in WeatherDisplay:10.37 W/m2 CLR
06:52 40.5 °F 38.1 °F 30.03 in Calm     91% 0.00 in WeatherDisplay:10.37 W/m2 CLR
06:57 40.4 °F 38.0 °F 30.03 in Calm     91% 0.00 in WeatherDisplay:10.37 W/m2 CLR
07:02 40.3 °F 37.9 °F 30.03 in Calm     91% 0.00 in WeatherDisplay:10.37 W/m2 BKN
07:07 40.3 °F 37.9 °F 30.03 in Calm     91% 0.00 in WeatherDisplay:10.37 W/m2 BKN
07:12 40.3 °F 37.9 °F 30.02 in Calm     91% 0.00 in WeatherDisplay:10.37 W/m2 BKN
07:17 40.3 °F 37.9 °F 30.03 in Calm     91% 0.00 in WeatherDisplay:10.37 W/m2 BKN
07:22 40.4 °F 38.3 °F 30.03 in Calm     92% 0.00 in WeatherDisplay:10.37 W/m2 BKN
07:27 40.4 °F 38.3 °F 30.03 in Calm     92% 0.00 in WeatherDisplay:10.37 W/m2 BKN
07:32 40.4 °F 38.0 °F 30.02 in Calm     91% 0.00 in WeatherDisplay:10.37 W/m2 BKN
07:37 40.4 °F 38.0 °F 30.02 in Calm     91% 0.00 in WeatherDisplay:10.37 W/m2 BKN
07:42 40.4 °F 38.3 °F 30.03 in Calm     92% 0.00 in WeatherDisplay:10.37 W/m2 BKN
07:48 40.6 °F 38.5 °F 30.03 in Calm     92% 0.00 in WeatherDisplay:10.37 W/m2 BKN
07:53 40.7 °F 38.6 °F 30.03 in Calm     92% 0.00 in WeatherDisplay:10.37 W/m2 BKN
07:58 40.9 °F 38.8 °F 30.03 in Calm     92% 0.00 in WeatherDisplay:10.37 W/m2 BKN
08:03 41.0 °F 38.9 °F 30.03 in Calm     92% 0.00 in WeatherDisplay:10.37 W/m2 BKN
08:08 41.1 °F 39.0 °F 30.03 in Calm     92% 0.00 in WeatherDisplay:10.37 W/m2 BKN
08:13 41.5 °F 39.3 °F 30.04 in Calm     92% 0.00 in WeatherDisplay:10.37 W/m2 BKN
08:18 41.9 °F 39.7 °F 30.04 in Calm     92% 0.00 in WeatherDisplay:10.37 W/m2 BKN
08:23 42.2 °F 40.0 °F 30.04 in Calm     92% 0.00 in WeatherDisplay:10.37 W/m2 BKN
08:28 42.8 °F 40.9 °F 30.04 in Calm     93% 0.00 in WeatherDisplay:10.37 W/m2 BKN
08:33 43.4 °F 41.5 °F 30.04 in Calm     93% 0.00 in WeatherDisplay:10.37 W/m2 BKN
08:38 44.0 °F 42.1 °F 30.04 in Calm     93% 0.00 in WeatherDisplay:10.37 W/m2 BKN
08:43 44.5 °F 42.6 °F 30.04 in Calm     93% 0.00 in WeatherDisplay:10.37 W/m2 BKN
08:49 44.7 °F 42.8 °F 30.04 in Calm     93% 0.00 in WeatherDisplay:10.37 W/m2 BKN
08:54 45.1 °F 43.2 °F 30.04 in Calm     93% 0.00 in WeatherDisplay:10.37 W/m2 BKN
08:59 45.4 °F 43.5 °F 30.04 in Calm     93% 0.00 in WeatherDisplay:10.37 W/m2 BKN
09:04 45.9 °F 44.0 °F 30.04 in Calm     93% 0.00 in WeatherDisplay:10.37 W/m2 OVC
09:09 46.2 °F 44.0 °F 30.04 in Calm     92% 0.00 in WeatherDisplay:10.37 W/m2 OVC
09:10 46.2 °F 44.0 °F 30.04 in Calm     92% 0.00 in WeatherDisplay:10.37 W/m2 OVC
09:15 46.6 °F 44.4 °F 30.04 in Calm     92% 0.00 in WeatherDisplay:10.37 W/m2 OVC
09:20 47.0 °F 44.8 °F 30.04 in Calm     92% 0.00 in WeatherDisplay:10.37 W/m2 OVC
09:25 47.4 °F 45.2 °F 30.04 in Calm     92% 0.00 in WeatherDisplay:10.37 W/m2 OVC
09:30 47.8 °F 45.3 °F 30.04 in Calm     91% 0.00 in WeatherDisplay:10.37 W/m2 OVC
09:35 48.1 °F 45.6 °F 30.04 in Calm     91% 0.00 in WeatherDisplay:10.37 W/m2 OVC
09:40 48.5 °F 45.7 °F 30.04 in Calm     90% 0.00 in WeatherDisplay:10.37 W/m2 OVC
09:45 48.9 °F 46.1 °F 30.04 in Calm     90% 0.00 in WeatherDisplay:10.37 W/m2 OVC
09:50 49.5 °F 46.7 °F 30.05 in Calm     90% 0.00 in WeatherDisplay:10.37 W/m2 OVC
09:56 50.6 °F 47.5 °F 30.05 in Calm     89% 0.00 in WeatherDisplay:10.37 W/m2 OVC
10:01 51.5 °F 46.5 °F 30.05 in NNW 1.2 mph 1.2 mph 83% 0.00 in WeatherDisplay:10.37 W/m2 OVC
10:06 52.6 °F 46.3 °F 30.05 in ENE 1.2 mph   79% 0.00 in WeatherDisplay:10.37 W/m2 BKN
10:11 53.5 °F 46.1 °F 30.05 in SE 2.3 mph 2.3 mph 76% 0.00 in WeatherDisplay:10.37 W/m2 BKN
10:16 54.1 °F 46.0 °F 30.05 in WSW 2.3 mph   74% 0.00 in WeatherDisplay:10.37 W/m2 BKN
10:21 54.8 °F 45.9 °F 30.05 in West 2.3 mph 2.3 mph 72% 0.00 in WeatherDisplay:10.37 W/m2 BKN
10:26 55.5 °F 46.2 °F 30.05 in West 3.5 mph 3.5 mph 71% 0.00 in WeatherDisplay:10.37 W/m2 BKN
10:31 55.9 °F 45.5 °F 30.05 in West 3.5 mph 3.5 mph 68% 0.00 in WeatherDisplay:10.37 W/m2 BKN
10:36 56.1 °F 43.7 °F 30.05 in West 3.5 mph 3.5 mph 63% 0.00 in WeatherDisplay:10.37 W/m2 BKN
10:41 56.2 °F 44.2 °F 30.05 in West 2.3 mph   64% 0.00 in WeatherDisplay:10.37 W/m2 BKN
10:49 56.5 °F 44.0 °F 30.05 in WNW 1.2 mph   63% 0.00 in WeatherDisplay:10.37 W/m2 BKN
10:54 56.8 °F 43.1 °F 30.05 in WSW 2.3 mph   60% 0.00 in WeatherDisplay:10.37 W/m2 BKN
10:59 57.2 °F 43.0 °F 30.04 in West 2.3 mph   59% 0.00 in WeatherDisplay:10.37 W/m2 BKN
11:05 57.5 °F 41.4 °F 30.05 in West 1.0 mph 3.0 mph 55% 0.00 in WeatherDisplay:10.37 W/m2 BKN
11:10 57.7 °F 40.7 °F 30.04 in Calm   3.0 mph 53% 0.00 in WeatherDisplay:10.37 W/m2 BKN
11:15 57.9 °F 40.4 °F 30.05 in North 3.5 mph   52% 0.00 in WeatherDisplay:10.37 W/m2 BKN
11:20 58.0 °F 41.0 °F 30.04 in WSW 4.6 mph 4.6 mph 53% 0.00 in WeatherDisplay:10.37 W/m2 BKN
11:25 58.2 °F 39.6 °F 30.04 in WNW 4.6 mph 4.6 mph 50% 0.00 in WeatherDisplay:10.37 W/m2 BKN
11:30 58.1 °F 39.0 °F 30.04 in West 2.3 mph 2.3 mph 49% 0.00 in WeatherDisplay:10.37 W/m2 BKN
11:35 57.9 °F 38.3 °F 30.04 in WNW 4.6 mph 4.6 mph 48% 0.00 in WeatherDisplay:10.37 W/m2 BKN
11:40 58.0 °F 38.9 °F 30.04 in NW 4.6 mph 4.6 mph 49% 0.00 in WeatherDisplay:10.37 W/m2 BKN
11:45 58.2 °F 36.9 °F 30.04 in NW 3.5 mph   45% 0.00 in WeatherDisplay:10.37 W/m2 BKN
11:50 58.8 °F 37.5 °F 30.04 in West 5.8 mph 5.8 mph 45% 0.00 in WeatherDisplay:10.37 W/m2 BKN
11:56 59.3 °F 39.1 °F 30.04 in WSW 5.8 mph 5.8 mph 47% 0.00 in WeatherDisplay:10.37 W/m2 BKN
12:00 59.9 °F 39.6 °F 30.03 in WSW 5.8 mph 5.8 mph 47% 0.00 in WeatherDisplay:10.37 W/m2 BKN
12:05 60.3 °F 38.3 °F 30.03 in WSW 3.5 mph 3.5 mph 44% 0.00 in WeatherDisplay:10.37 W/m2 BKN
12:10 60.3 °F 38.9 °F 30.03 in SW 3.5 mph 3.5 mph 45% 0.00 in WeatherDisplay:10.37 W/m2 BKN
12:16 60.5 °F 38.5 °F 30.02 in WNW 3.5 mph 3.5 mph 44% 0.00 in WeatherDisplay:10.37 W/m2 BKN
12:21 60.7 °F 38.1 °F 30.02 in WSW 3.5 mph 3.5 mph 43% 0.00 in WeatherDisplay:10.37 W/m2 BKN
12:26 60.9 °F 38.8 °F 30.02 in SSW 5.8 mph 5.8 mph 44% 0.00 in WeatherDisplay:10.37 W/m2 BKN
12:31 61.2 °F 38.5 °F 30.01 in West 5.8 mph 5.8 mph 43% 0.00 in WeatherDisplay:10.37 W/m2 BKN
12:36 61.3 °F 39.2 °F 30.01 in SSW 5.8 mph 5.8 mph 44% 0.00 in WeatherDisplay:10.37 W/m2 BKN
12:41 61.3 °F 38.6 °F 30.01 in WSW 5.8 mph 5.8 mph 43% 0.00 in WeatherDisplay:10.37 W/m2 BKN
12:46 61.8 °F 40.2 °F 30.01 in West 5.8 mph 5.8 mph 45% 0.00 in WeatherDisplay:10.37 W/m2 BKN
12:51 62.5 °F 40.3 °F 30.00 in WSW 4.6 mph 4.6 mph 44% 0.00 in WeatherDisplay:10.37 W/m2 BKN
12:56 62.8 °F 38.1 °F 29.99 in West 2.3 mph   40% 0.00 in WeatherDisplay:10.37 W/m2 BKN
13:01 62.8 °F 38.7 °F 29.99 in North 2.3 mph   41% 0.00 in WeatherDisplay:10.37 W/m2 BKN
13:06 62.7 °F 38.6 °F 29.99 in NW 2.3 mph   41% 0.00 in WeatherDisplay:10.37 W/m2 BKN
13:11 62.7 °F 39.9 °F 29.99 in WSW 2.3 mph 2.3 mph 43% 0.00 in WeatherDisplay:10.37 W/m2 BKN
13:16 62.6 °F 39.2 °F 29.99 in WNW 2.3 mph 2.3 mph 42% 0.00 in WeatherDisplay:10.37 W/m2 BKN
13:22 62.4 °F 39.6 °F 29.99 in WNW 2.3 mph 2.3 mph 43% 0.00 in WeatherDisplay:10.37 W/m2 BKN
13:27 62.2 °F 40.6 °F 29.99 in WNW 2.3 mph   45% 0.00 in WeatherDisplay:10.37 W/m2 BKN
13:32 62.2 °F 40.6 °F 29.99 in WNW 1.2 mph   45% 0.00 in WeatherDisplay:10.37 W/m2 BKN
13:37 62.1 °F 40.5 °F 29.99 in WNW 1.2 mph   45% 0.00 in WeatherDisplay:10.37 W/m2 BKN
13:42 62.2 °F 40.0 °F 29.99 in WNW 1.2 mph   44% 0.00 in WeatherDisplay:10.37 W/m2 BKN
13:52 62.5 °F 40.3 °F 29.99 in NW 1.2 mph 1.2 mph 44% 0.00 in WeatherDisplay:10.37 W/m2 BKN
13:57 62.7 °F 39.9 °F 29.99 in NW 4.6 mph   43% 0.00 in WeatherDisplay:10.37 W/m2 BKN
14:02 62.8 °F 39.4 °F 29.99 in West 4.6 mph 4.6 mph 42% 0.00 in WeatherDisplay:10.37 W/m2 BKN
14:07 62.9 °F 40.0 °F 29.99 in WSW 2.3 mph 2.3 mph 43% 0.00 in WeatherDisplay:10.37 W/m2 BKN
14:12 63.0 °F 40.1 °F 29.99 in West 1.2 mph 1.2 mph 43% 0.00 in WeatherDisplay:10.37 W/m2 BKN
14:17 63.2 °F 39.7 °F 29.99 in WNW 3.5 mph 3.5 mph 42% 0.00 in WeatherDisplay:10.37 W/m2 BKN
14:22 63.2 °F 39.7 °F 30.00 in NW 6.9 mph 6.9 mph 42% 0.00 in WeatherDisplay:10.37 W/m2 BKN
14:28 62.9 °F 40.6 °F 29.99 in NNW 6.9 mph 6.9 mph 44% 0.00 in WeatherDisplay:10.37 W/m2 BKN
14:33 62.5 °F 40.3 °F 29.99 in ENE 3.5 mph 3.5 mph 44% 0.00 in WeatherDisplay:10.37 W/m2 BKN
14:38 62.3 °F 40.1 °F 29.99 in NNW 3.5 mph   44% 0.00 in WeatherDisplay:10.37 W/m2 BKN
14:43 62.3 °F 40.7 °F 29.99 in WNW 2.3 mph   45% 0.00 in WeatherDisplay:10.37 W/m2 BKN
14:48 62.3 °F 41.2 °F 29.99 in WSW 2.3 mph   46% 0.00 in WeatherDisplay:10.37 W/m2 BKN
14:53 62.3 °F 41.2 °F 29.99 in WSW 2.3 mph 2.3 mph 46% 0.00 in WeatherDisplay:10.37 W/m2 BKN
14:58 62.2 °F 40.0 °F 29.99 in SSE 2.3 mph   44% 0.00 in WeatherDisplay:10.37 W/m2 BKN
15:03 62.2 °F 40.6 °F 29.99 in NNE 2.3 mph   45% 0.00 in WeatherDisplay:10.37 W/m2 OVC
15:08 62.1 °F 41.1 °F 29.99 in NW 2.3 mph 2.3 mph 46% 0.00 in WeatherDisplay:10.37 W/m2 OVC
15:14 62.1 °F 40.5 °F 29.99 in NW 2.3 mph   45% 0.00 in WeatherDisplay:10.37 W/m2 OVC
15:19 62.3 °F 41.2 °F 29.99 in NNW 2.3 mph 2.3 mph 46% 0.00 in WeatherDisplay:10.37 W/m2 OVC
15:24 62.5 °F 40.3 °F 29.99 in NNW 1.2 mph   44% 0.00 in WeatherDisplay:10.37 W/m2 OVC
15:29 62.5 °F 39.7 °F 29.99 in NNW 1.2 mph 1.2 mph 43% 0.00 in WeatherDisplay:10.37 W/m2 OVC
15:33 62.2 °F 40.6 °F 29.99 in NW 1.2 mph   45% 0.00 in WeatherDisplay:10.37 W/m2 OVC
15:38 61.7 °F 39.6 °F 29.99 in WNW 1.2 mph 1.2 mph 44% 0.00 in WeatherDisplay:10.37 W/m2 OVC
15:43 61.3 °F 40.9 °F 29.99 in NW 1.2 mph   47% 0.00 in WeatherDisplay:10.37 W/m2 OVC
15:49 61.0 °F 41.2 °F 29.99 in NW 1.2 mph   48% 0.00 in WeatherDisplay:10.37 W/m2 OVC
15:54 60.7 °F 41.9 °F 29.99 in Calm     50% 0.00 in WeatherDisplay:10.37 W/m2 OVC
15:59 60.5 °F 42.3 °F 29.99 in Calm     51% 0.00 in WeatherDisplay:10.37 W/m2 OVC
16:04 60.4 °F 40.1 °F 29.99 in Calm     47% 0.00 in WeatherDisplay:10.37 W/m2 BKN
16:09 60.3 °F 41.6 °F 29.99 in Calm     50% 0.00 in WeatherDisplay:10.37 W/m2 BKN
16:14 60.1 °F 42.9 °F 29.99 in Calm     53% 0.00 in WeatherDisplay:10.37 W/m2 BKN
16:19 59.8 °F 42.1 °F 30.00 in Calm     52% 0.00 in WeatherDisplay:10.37 W/m2 BKN
16:24 59.6 °F 42.4 °F 30.00 in Calm     53% 0.00 in WeatherDisplay:10.37 W/m2 BKN
16:29 59.4 °F 41.8 °F 30.00 in Calm     52% 0.00 in WeatherDisplay:10.37 W/m2 BKN
16:39 59.3 °F 41.7 °F 30.00 in WNW 1.2 mph   52% 0.00 in WeatherDisplay:10.37 W/m2 BKN
16:44 59.3 °F 40.7 °F 30.00 in West 1.2 mph   50% 0.00 in WeatherDisplay:10.37 W/m2 BKN
16:49 59.2 °F 41.6 °F 30.00 in Calm     52% 0.00 in WeatherDisplay:10.37 W/m2 BKN
16:55 59.0 °F 41.9 °F 30.00 in Calm     53% 0.00 in WeatherDisplay:10.37 W/m2 BKN
17:00 58.8 °F 41.7 °F 30.01 in SW 2.3 mph   53% 0.00 in WeatherDisplay:10.37 W/m2 BKN
17:05 58.5 °F 41.4 °F 30.01 in ESE 2.3 mph   53% 0.00 in WeatherDisplay:10.37 W/m2 BKN
17:10 58.2 °F 41.6 °F 30.01 in ESE 1.2 mph   54% 0.00 in WeatherDisplay:10.37 W/m2 BKN
17:15 58.0 °F 41.4 °F 30.01 in SSE 1.2 mph   54% 0.00 in WeatherDisplay:10.37 W/m2 BKN
17:20 57.6 °F 42.0 °F 30.01 in South 1.2 mph   56% 0.00 in WeatherDisplay:10.37 W/m2 BKN
17:25 57.1 °F 41.5 °F 30.02 in West 1.2 mph   56% 0.00 in WeatherDisplay:10.37 W/m2 BKN
17:30 56.9 °F 40.4 °F 30.02 in West 1.2 mph   54% 0.00 in WeatherDisplay:10.37 W/m2 BKN
17:35 56.7 °F 41.2 °F 30.02 in Calm     56% 0.00 in WeatherDisplay:10.37 W/m2 BKN
17:40 56.3 °F 41.3 °F 30.03 in Calm     57% 0.00 in WeatherDisplay:10.37 W/m2 BKN
17:45 55.9 °F 41.3 °F 30.03 in Calm     58% 0.00 in WeatherDisplay:10.37 W/m2 BKN
17:50 55.3 °F 41.2 °F 30.03 in Calm     59% 0.00 in WeatherDisplay:10.37 W/m2 BKN
17:55 54.9 °F 41.7 °F 30.03 in Calm     61% 0.00 in WeatherDisplay:10.37 W/m2 BKN
18:01 54.5 °F 41.3 °F 30.04 in Calm     61% 0.00 in WeatherDisplay:10.37 W/m2 BKN
18:06 54.1 °F 41.8 °F 30.04 in Calm     63% 0.00 in WeatherDisplay:10.37 W/m2 BKN
18:11 53.8 °F 41.5 °F 30.04 in Calm     63% 0.00 in WeatherDisplay:10.37 W/m2 BKN
18:16 53.7 °F 41.4 °F 30.04 in Calm     63% 0.00 in WeatherDisplay:10.37 W/m2 BKN
18:21 53.6 °F 41.3 °F 30.04 in Calm     63% 0.00 in WeatherDisplay:10.37 W/m2 BKN
18:26 53.4 °F 41.1 °F 30.04 in Calm     63% 0.00 in WeatherDisplay:10.37 W/m2 BKN
18:31 53.2 °F 41.3 °F 30.04 in Calm     64% 0.00 in WeatherDisplay:10.37 W/m2 BKN
18:36 53.0 °F 41.1 °F 30.04 in Calm     64% 0.00 in WeatherDisplay:10.37 W/m2 BKN
18:41 52.9 °F 41.0 °F 30.04 in Calm     64% 0.00 in WeatherDisplay:10.37 W/m2 BKN
18:46 52.8 °F 41.4 °F 30.05 in Calm     65% 0.00 in WeatherDisplay:10.37 W/m2 BKN
18:51 52.5 °F 41.1 °F 30.05 in Calm     65% 0.00 in WeatherDisplay:10.37 W/m2 BKN
18:56 52.3 °F 40.9 °F 30.05 in Calm     65% 0.00 in WeatherDisplay:10.37 W/m2 BKN
19:02 52.1 °F 41.5 °F 30.05 in Calm     67% 0.00 in WeatherDisplay:10.37 W/m2 FEW
19:07 52.0 °F 41.4 °F 30.05 in Calm     67% 0.00 in WeatherDisplay:10.37 W/m2 FEW
19:12 51.9 °F 41.3 °F 30.05 in Calm     67% 0.00 in WeatherDisplay:10.37 W/m2 FEW
19:17 51.8 °F 41.2 °F 30.05 in Calm     67% 0.00 in WeatherDisplay:10.37 W/m2 FEW
19:22 51.6 °F 41.0 °F 30.05 in Calm     67% 0.00 in WeatherDisplay:10.37 W/m2 FEW
19:27 51.5 °F 40.9 °F 30.06 in Calm     67% 0.00 in WeatherDisplay:10.37 W/m2 FEW
19:32 51.3 °F 41.1 °F 30.06 in Calm     68% 0.00 in WeatherDisplay:10.37 W/m2 FEW
19:37 51.1 °F 41.3 °F 30.06 in Calm     69% 0.00 in WeatherDisplay:10.37 W/m2 FEW
19:42 50.9 °F 41.1 °F 30.06 in Calm     69% 0.00 in WeatherDisplay:10.37 W/m2 FEW
19:47 50.7 °F 40.9 °F 30.06 in Calm     69% 0.00 in WeatherDisplay:10.37 W/m2 FEW
19:52 50.6 °F 41.2 °F 30.06 in Calm     70% 0.00 in WeatherDisplay:10.37 W/m2 FEW
19:57 50.4 °F 41.0 °F 30.06 in Calm     70% 0.00 in WeatherDisplay:10.37 W/m2 FEW
20:02 50.2 °F 40.8 °F 30.06 in Calm     70% 0.00 in WeatherDisplay:10.37 W/m2 FEW
20:08 50.1 °F 41.1 °F 30.06 in Calm     71% 0.00 in WeatherDisplay:10.37 W/m2 FEW
20:13 49.9 °F 40.9 °F 30.07 in Calm     71% 0.00 in WeatherDisplay:10.37 W/m2 FEW
20:18 49.8 °F 40.8 °F 30.07 in Calm     71% 0.00 in WeatherDisplay:10.37 W/m2 FEW
20:23 49.7 °F 41.0 °F 30.07 in Calm     72% 0.00 in WeatherDisplay:10.37 W/m2 FEW
20:28 49.6 °F 41.3 °F 30.07 in Calm     73% 0.00 in WeatherDisplay:10.37 W/m2 FEW
20:33 49.5 °F 41.2 °F 30.08 in Calm     73% 0.00 in WeatherDisplay:10.37 W/m2 FEW
20:38 49.4 °F 41.1 °F 30.08 in Calm     73% 0.00 in WeatherDisplay:10.37 W/m2 FEW
20:43 49.2 °F 40.9 °F 30.08 in Calm     73% 0.00 in WeatherDisplay:10.37 W/m2 FEW
20:48 49.1 °F 40.8 °F 30.08 in Calm     73% 0.00 in WeatherDisplay:10.37 W/m2 FEW
20:53 49.1 °F 41.2 °F 30.08 in Calm     74% 0.00 in WeatherDisplay:10.37 W/m2 FEW
20:58 49.0 °F 41.1 °F 30.07 in Calm     74% 0.00 in WeatherDisplay:10.37 W/m2 FEW
21:03 48.8 °F 40.9 °F 30.08 in Calm     74% 0.00 in WeatherDisplay:10.37 W/m2 FEW
21:08 48.6 °F 41.0 °F 30.08 in Calm     75% 0.00 in WeatherDisplay:10.37 W/m2 FEW
21:14 48.5 °F 40.9 °F 30.08 in Calm     75% 0.00 in WeatherDisplay:10.37 W/m2 CLR
21:19 48.4 °F 40.8 °F 30.08 in Calm     75% 0.00 in WeatherDisplay:10.37 W/m2 CLR
21:24 48.3 °F 41.1 °F 30.08 in Calm     76% 0.00 in WeatherDisplay:10.37 W/m2 CLR
21:29 48.1 °F 41.2 °F 30.08 in Calm     77% 0.00 in WeatherDisplay:10.37 W/m2 CLR
21:34 47.9 °F 41.0 °F 30.08 in Calm     77% 0.00 in WeatherDisplay:10.37 W/m2 CLR
21:39 47.9 °F 41.0 °F 30.08 in Calm     77% 0.00 in WeatherDisplay:10.37 W/m2 CLR
21:44 47.9 °F 41.4 °F 30.08 in Calm     78% 0.00 in WeatherDisplay:10.37 W/m2 CLR
21:49 47.7 °F 41.2 °F 30.08 in Calm     78% 0.00 in WeatherDisplay:10.37 W/m2 CLR
21:54 47.8 °F 41.3 °F 30.08 in Calm     78% 0.00 in WeatherDisplay:10.37 W/m2 CLR
21:59 47.8 °F 41.3 °F 30.08 in Calm     78% 0.00 in WeatherDisplay:10.37 W/m2 CLR
22:04 47.9 °F 41.4 °F 30.08 in WNW 1.2 mph   78% 0.00 in WeatherDisplay:10.37 W/m2 CLR
22:10 47.9 °F 41.4 °F 30.08 in WNW 1.2 mph   78% 0.00 in WeatherDisplay:10.37 W/m2 CLR
22:15 47.8 °F 41.3 °F 30.09 in West 1.2 mph   78% 0.00 in WeatherDisplay:10.37 W/m2 CLR
22:20 47.7 °F 41.5 °F 30.09 in WNW 1.2 mph   79% 0.00 in WeatherDisplay:10.37 W/m2 CLR
22:25 47.7 °F 41.5 °F 30.09 in Calm     79% 0.00 in WeatherDisplay:10.37 W/m2 CLR
22:30 47.7 °F 41.5 °F 30.09 in Calm     79% 0.00 in WeatherDisplay:10.37 W/m2 CLR
22:35 47.6 °F 41.4 °F 30.09 in Calm     79% 0.00 in WeatherDisplay:10.37 W/m2 CLR
22:40 47.6 °F 41.4 °F 30.09 in Calm     79% 0.00 in WeatherDisplay:10.37 W/m2 CLR
22:45 47.5 °F 41.3 °F 30.09 in Calm     79% 0.00 in WeatherDisplay:10.37 W/m2 CLR
22:50 47.3 °F 41.4 °F 30.10 in Calm     80% 0.00 in WeatherDisplay:10.37 W/m2 CLR
22:55 47.3 °F 41.4 °F 30.10 in NW 1.2 mph 1.2 mph 80% 0.00 in WeatherDisplay:10.37 W/m2 CLR
23:01 47.3 °F 41.4 °F 30.10 in WNW 1.2 mph   80% 0.00 in WeatherDisplay:10.37 W/m2 CLR
23:06 47.2 °F 41.3 °F 30.10 in WNW 1.2 mph   80% 0.00 in WeatherDisplay:10.37 W/m2 CLR
23:11 47.2 °F 41.3 °F 30.10 in Calm     80% 0.00 in WeatherDisplay:10.37 W/m2 CLR
23:16 47.1 °F 41.2 °F 30.11 in Calm     80% 0.00 in WeatherDisplay:10.37 W/m2 CLR
23:21 47.0 °F 41.5 °F 30.11 in WNW 1.2 mph   81% 0.00 in WeatherDisplay:10.37 W/m2 CLR
23:26 46.9 °F 41.4 °F 30.11 in WNW 1.2 mph   81% 0.00 in WeatherDisplay:10.37 W/m2 CLR
23:31 46.7 °F 41.2 °F 30.11 in Calm     81% 0.00 in WeatherDisplay:10.37 W/m2 CLR
23:36 46.5 °F 41.0 °F 30.11 in Calm     81% 0.00 in WeatherDisplay:10.37 W/m2 CLR
23:41 46.5 °F 41.0 °F 30.11 in Calm     81% 0.00 in WeatherDisplay:10.37 W/m2 CLR
23:46 46.6 °F 41.1 °F 30.11 in WNW 1.2 mph   81% 0.00 in WeatherDisplay:10.37 W/m2 CLR
23:51 46.6 °F 41.1 °F 30.11 in West 1.2 mph   81% 0.00 in WeatherDisplay:10.37 W/m2 CLR
23:56 46.5 °F 41.0 °F 30.11 in West 1.2 mph   81% 0.00 in WeatherDisplay:10.37 W/m2 CLR
Piedmont Bend
Compliments of Weather Underground - 4 mb